sensor_id;sensor_type;location;lat;lon;timestamp;temperature;humidity
11838;DHT22;5978;51.020;6.764;2024-02-14T00:02:16;9.30;99.90
11838;DHT22;5978;51.020;6.764;2024-02-14T00:04:42;9.30;99.90
11838;DHT22;5978;51.020;6.764;2024-02-14T00:07:08;9.30;99.90
11838;DHT22;5978;51.020;6.764;2024-02-14T00:09:34;9.40;99.90
11838;DHT22;5978;51.020;6.764;2024-02-14T00:12:00;9.40;99.90
11838;DHT22;5978;51.020;6.764;2024-02-14T00:14:25;9.40;99.90
11838;DHT22;5978;51.020;6.764;2024-02-14T00:16:51;9.40;99.90
11838;DHT22;5978;51.020;6.764;2024-02-14T00:19:16;9.50;99.90
11838;DHT22;5978;51.020;6.764;2024-02-14T00:21:42;9.50;99.90
11838;DHT22;5978;51.020;6.764;2024-02-14T00:24:07;9.50;99.90
11838;DHT22;5978;51.020;6.764;2024-02-14T00:26:33;9.50;99.90
11838;DHT22;5978;51.020;6.764;2024-02-14T00:28:59;9.60;99.90
11838;DHT22;5978;51.020;6.764;2024-02-14T00:31:24;9.60;99.90
11838;DHT22;5978;51.020;6.764;2024-02-14T00:33:50;9.60;99.90
11838;DHT22;5978;51.020;6.764;2024-02-14T00:36:16;9.50;99.90
11838;DHT22;5978;51.020;6.764;2024-02-14T00:38:42;9.50;99.90
11838;DHT22;5978;51.020;6.764;2024-02-14T00:41:07;9.60;99.90
11838;DHT22;5978;51.020;6.764;2024-02-14T00:43:33;9.60;99.90
11838;DHT22;5978;51.020;6.764;2024-02-14T00:45:58;9.60;99.90
11838;DHT22;5978;51.020;6.764;2024-02-14T00:48:24;9.60;99.90
11838;DHT22;5978;51.020;6.764;2024-02-14T00:50:50;9.60;99.90
11838;DHT22;5978;51.020;6.764;2024-02-14T00:53:17;9.60;99.90
11838;DHT22;5978;51.020;6.764;2024-02-14T00:55:43;9.60;99.90
11838;DHT22;5978;51.020;6.764;2024-02-14T00:58:09;9.60;99.90
11838;DHT22;5978;51.020;6.764;2024-02-14T01:00:34;9.60;99.90
11838;DHT22;5978;51.020;6.764;2024-02-14T01:03:00;9.60;99.90
11838;DHT22;5978;51.020;6.764;2024-02-14T01:05:25;9.60;99.90
11838;DHT22;5978;51.020;6.764;2024-02-14T01:07:52;9.60;99.90
11838;DHT22;5978;51.020;6.764;2024-02-14T01:10:19;9.60;99.90
11838;DHT22;5978;51.020;6.764;2024-02-14T01:12:44;9.60;99.90
11838;DHT22;5978;51.020;6.764;2024-02-14T01:15:10;9.60;99.90
11838;DHT22;5978;51.020;6.764;2024-02-14T01:17:36;9.60;99.90
11838;DHT22;5978;51.020;6.764;2024-02-14T01:20:04;9.60;99.90
11838;DHT22;5978;51.020;6.764;2024-02-14T01:22:30;9.60;99.90
11838;DHT22;5978;51.020;6.764;2024-02-14T01:24:55;9.70;99.90
11838;DHT22;5978;51.020;6.764;2024-02-14T01:27:21;9.70;99.90
11838;DHT22;5978;51.020;6.764;2024-02-14T01:29:48;9.70;99.90
11838;DHT22;5978;51.020;6.764;2024-02-14T01:32:13;9.70;99.90
11838;DHT22;5978;51.020;6.764;2024-02-14T01:34:39;9.70;99.90
11838;DHT22;5978;51.020;6.764;2024-02-14T01:37:05;9.70;99.90
11838;DHT22;5978;51.020;6.764;2024-02-14T01:39:31;9.80;99.90
11838;DHT22;5978;51.020;6.764;2024-02-14T01:41:57;9.70;99.90
11838;DHT22;5978;51.020;6.764;2024-02-14T01:44:22;9.80;99.90
11838;DHT22;5978;51.020;6.764;2024-02-14T01:46:48;9.80;99.90
11838;DHT22;5978;51.020;6.764;2024-02-14T01:49:15;9.70;99.90
11838;DHT22;5978;51.020;6.764;2024-02-14T01:51:43;9.70;99.90
11838;DHT22;5978;51.020;6.764;2024-02-14T01:54:11;9.80;99.90
11838;DHT22;5978;51.020;6.764;2024-02-14T01:56:39;9.80;99.90
11838;DHT22;5978;51.020;6.764;2024-02-14T01:59:05;9.80;99.90
11838;DHT22;5978;51.020;6.764;2024-02-14T02:01:32;9.80;99.90
11838;DHT22;5978;51.020;6.764;2024-02-14T02:03:58;9.80;99.90
11838;DHT22;5978;51.020;6.764;2024-02-14T02:06:24;9.80;99.90
11838;DHT22;5978;51.020;6.764;2024-02-14T02:08:51;9.90;99.90
11838;DHT22;5978;51.020;6.764;2024-02-14T02:11:17;9.90;99.90
11838;DHT22;5978;51.020;6.764;2024-02-14T02:13:42;9.90;99.90
11838;DHT22;5978;51.020;6.764;2024-02-14T02:16:09;9.90;99.90
11838;DHT22;5978;51.020;6.764;2024-02-14T02:18:34;9.90;99.90
11838;DHT22;5978;51.020;6.764;2024-02-14T02:21:00;9.90;99.90
11838;DHT22;5978;51.020;6.764;2024-02-14T02:23:29;10.00;99.90
11838;DHT22;5978;51.020;6.764;2024-02-14T02:25:55;10.00;99.90
11838;DHT22;5978;51.020;6.764;2024-02-14T02:28:20;9.90;99.90
11838;DHT22;5978;51.020;6.764;2024-02-14T02:30:46;9.90;99.90
11838;DHT22;5978;51.020;6.764;2024-02-14T02:33:12;9.90;99.90
11838;DHT22;5978;51.020;6.764;2024-02-14T02:35:41;9.90;99.90
11838;DHT22;5978;51.020;6.764;2024-02-14T02:38:07;9.90;99.90
11838;DHT22;5978;51.020;6.764;2024-02-14T02:40:33;9.90;99.90
11838;DHT22;5978;51.020;6.764;2024-02-14T02:42:58;9.90;99.90
11838;DHT22;5978;51.020;6.764;2024-02-14T02:45:25;9.90;99.90
11838;DHT22;5978;51.020;6.764;2024-02-14T02:47:51;9.90;99.90
11838;DHT22;5978;51.020;6.764;2024-02-14T02:50:17;9.90;99.90
11838;DHT22;5978;51.020;6.764;2024-02-14T02:52:43;9.90;99.90
11838;DHT22;5978;51.020;6.764;2024-02-14T02:55:08;9.90;99.90
11838;DHT22;5978;51.020;6.764;2024-02-14T02:57:34;9.90;99.90
11838;DHT22;5978;51.020;6.764;2024-02-14T03:00:03;9.90;99.90
11838;DHT22;5978;51.020;6.764;2024-02-14T03:02:31;9.90;99.90
11838;DHT22;5978;51.020;6.764;2024-02-14T03:04:56;9.90;99.90
11838;DHT22;5978;51.020;6.764;2024-02-14T03:07:22;9.90;99.90
11838;DHT22;5978;51.020;6.764;2024-02-14T03:09:48;9.90;99.90
11838;DHT22;5978;51.020;6.764;2024-02-14T03:12:14;9.90;99.90
11838;DHT22;5978;51.020;6.764;2024-02-14T03:14:41;9.90;99.90
11838;DHT22;5978;51.020;6.764;2024-02-14T03:17:09;9.90;99.90
11838;DHT22;5978;51.020;6.764;2024-02-14T03:19:35;9.90;99.90
11838;DHT22;5978;51.020;6.764;2024-02-14T03:22:04;9.90;99.90
11838;DHT22;5978;51.020;6.764;2024-02-14T03:24:34;10.00;99.90
11838;DHT22;5978;51.020;6.764;2024-02-14T03:27:00;10.00;99.90
11838;DHT22;5978;51.020;6.764;2024-02-14T03:29:26;10.10;99.90
11838;DHT22;5978;51.020;6.764;2024-02-14T03:31:52;10.10;99.90
11838;DHT22;5978;51.020;6.764;2024-02-14T03:34:19;10.20;99.90
11838;DHT22;5978;51.020;6.764;2024-02-14T03:36:44;10.20;99.90
11838;DHT22;5978;51.020;6.764;2024-02-14T03:39:10;10.20;99.90
11838;DHT22;5978;51.020;6.764;2024-02-14T03:41:36;10.20;99.90
11838;DHT22;5978;51.020;6.764;2024-02-14T03:44:02;10.20;99.90
11838;DHT22;5978;51.020;6.764;2024-02-14T03:46:29;10.20;99.90
11838;DHT22;5978;51.020;6.764;2024-02-14T03:48:55;10.20;99.90
11838;DHT22;5978;51.020;6.764;2024-02-14T03:51:23;10.30;99.90
11838;DHT22;5978;51.020;6.764;2024-02-14T03:53:49;10.30;99.90
11838;DHT22;5978;51.020;6.764;2024-02-14T03:56:15;10.30;99.90
11838;DHT22;5978;51.020;6.764;2024-02-14T03:58:41;10.30;99.90
11838;DHT22;5978;51.020;6.764;2024-02-14T04:01:07;10.30;99.90
11838;DHT22;5978;51.020;6.764;2024-02-14T04:03:33;10.30;99.90
11838;DHT22;5978;51.020;6.764;2024-02-14T04:05:58;10.20;99.90
11838;DHT22;5978;51.020;6.764;2024-02-14T04:08:24;10.30;99.90
11838;DHT22;5978;51.020;6.764;2024-02-14T04:10:50;10.30;99.90
11838;DHT22;5978;51.020;6.764;2024-02-14T04:13:16;10.30;99.90
11838;DHT22;5978;51.020;6.764;2024-02-14T04:15:42;10.30;99.90
11838;DHT22;5978;51.020;6.764;2024-02-14T04:18:10;10.30;99.90
11838;DHT22;5978;51.020;6.764;2024-02-14T04:20:36;10.30;99.90
11838;DHT22;5978;51.020;6.764;2024-02-14T04:23:02;10.30;99.90
11838;DHT22;5978;51.020;6.764;2024-02-14T04:25:28;10.30;99.90
11838;DHT22;5978;51.020;6.764;2024-02-14T04:27:54;10.30;99.90
11838;DHT22;5978;51.020;6.764;2024-02-14T04:30:19;10.30;99.90
11838;DHT22;5978;51.020;6.764;2024-02-14T04:32:45;10.40;99.90
11838;DHT22;5978;51.020;6.764;2024-02-14T04:35:10;10.30;99.90
11838;DHT22;5978;51.020;6.764;2024-02-14T04:37:36;10.30;99.90
11838;DHT22;5978;51.020;6.764;2024-02-14T04:40:02;10.30;99.90
11838;DHT22;5978;51.020;6.764;2024-02-14T04:42:29;10.30;99.90
11838;DHT22;5978;51.020;6.764;2024-02-14T04:44:55;10.30;99.90
11838;DHT22;5978;51.020;6.764;2024-02-14T04:47:20;10.30;99.90
11838;DHT22;5978;51.020;6.764;2024-02-14T04:49:46;10.20;99.90
11838;DHT22;5978;51.020;6.764;2024-02-14T04:52:12;10.20;99.90
11838;DHT22;5978;51.020;6.764;2024-02-14T04:54:38;10.20;99.90
11838;DHT22;5978;51.020;6.764;2024-02-14T04:57:03;10.20;99.90
11838;DHT22;5978;51.020;6.764;2024-02-14T04:59:30;10.20;99.90
11838;DHT22;5978;51.020;6.764;2024-02-14T05:01:55;10.20;99.90
11838;DHT22;5978;51.020;6.764;2024-02-14T05:04:22;10.30;99.90
11838;DHT22;5978;51.020;6.764;2024-02-14T05:06:48;10.30;99.90
11838;DHT22;5978;51.020;6.764;2024-02-14T05:09:14;10.30;99.90
11838;DHT22;5978;51.020;6.764;2024-02-14T05:11:41;10.30;99.90
11838;DHT22;5978;51.020;6.764;2024-02-14T05:14:06;10.30;99.90
11838;DHT22;5978;51.020;6.764;2024-02-14T05:16:32;10.30;99.90
11838;DHT22;5978;51.020;6.764;2024-02-14T05:18:58;10.40;99.90
11838;DHT22;5978;51.020;6.764;2024-02-14T05:21:23;10.40;99.90
11838;DHT22;5978;51.020;6.764;2024-02-14T05:23:49;10.30;99.90
11838;DHT22;5978;51.020;6.764;2024-02-14T05:26:15;10.20;99.90
11838;DHT22;5978;51.020;6.764;2024-02-14T05:28:40;10.10;99.90
11838;DHT22;5978;51.020;6.764;2024-02-14T05:31:06;10.10;99.90
11838;DHT22;5978;51.020;6.764;2024-02-14T05:33:32;10.00;99.90
11838;DHT22;5978;51.020;6.764;2024-02-14T05:35:58;10.00;99.90
11838;DHT22;5978;51.020;6.764;2024-02-14T05:38:23;10.00;99.90
11838;DHT22;5978;51.020;6.764;2024-02-14T05:40:49;10.00;99.90
11838;DHT22;5978;51.020;6.764;2024-02-14T05:43:15;10.00;99.90
11838;DHT22;5978;51.020;6.764;2024-02-14T05:45:41;10.00;99.90
11838;DHT22;5978;51.020;6.764;2024-02-14T05:48:07;10.10;99.90
11838;DHT22;5978;51.020;6.764;2024-02-14T05:50:34;10.10;99.90
11838;DHT22;5978;51.020;6.764;2024-02-14T05:53:00;10.10;99.90
11838;DHT22;5978;51.020;6.764;2024-02-14T05:55:26;10.10;99.90
11838;DHT22;5978;51.020;6.764;2024-02-14T05:57:52;10.10;99.90
11838;DHT22;5978;51.020;6.764;2024-02-14T06:00:21;10.10;99.90
11838;DHT22;5978;51.020;6.764;2024-02-14T06:02:47;10.10;99.90
11838;DHT22;5978;51.020;6.764;2024-02-14T06:05:14;10.10;99.90
11838;DHT22;5978;51.020;6.764;2024-02-14T06:07:40;10.10;99.90
11838;DHT22;5978;51.020;6.764;2024-02-14T06:10:07;10.10;99.90
11838;DHT22;5978;51.020;6.764;2024-02-14T06:12:34;10.10;99.90
11838;DHT22;5978;51.020;6.764;2024-02-14T06:15:03;10.20;99.90
11838;DHT22;5978;51.020;6.764;2024-02-14T06:17:29;10.20;99.90
11838;DHT22;5978;51.020;6.764;2024-02-14T06:19:54;10.20;99.90
11838;DHT22;5978;51.020;6.764;2024-02-14T06:22:20;10.20;99.90
11838;DHT22;5978;51.020;6.764;2024-02-14T06:24:46;10.20;99.90
11838;DHT22;5978;51.020;6.764;2024-02-14T06:27:15;10.20;99.90
11838;DHT22;5978;51.020;6.764;2024-02-14T06:29:44;10.30;99.90
11838;DHT22;5978;51.020;6.764;2024-02-14T06:32:12;10.30;99.90
11838;DHT22;5978;51.020;6.764;2024-02-14T06:34:38;10.40;99.90
11838;DHT22;5978;51.020;6.764;2024-02-14T06:37:03;10.40;99.90
11838;DHT22;5978;51.020;6.764;2024-02-14T06:39:29;10.40;99.90
11838;DHT22;5978;51.020;6.764;2024-02-14T06:41:55;10.40;99.90
11838;DHT22;5978;51.020;6.764;2024-02-14T06:44:23;10.40;99.90
11838;DHT22;5978;51.020;6.764;2024-02-14T06:46:48;10.50;99.90
11838;DHT22;5978;51.020;6.764;2024-02-14T06:49:15;10.50;99.90
11838;DHT22;5978;51.020;6.764;2024-02-14T06:51:40;10.50;99.90
11838;DHT22;5978;51.020;6.764;2024-02-14T06:54:06;10.60;99.90
11838;DHT22;5978;51.020;6.764;2024-02-14T06:56:32;10.60;99.90
11838;DHT22;5978;51.020;6.764;2024-02-14T06:58:57;10.60;99.90
11838;DHT22;5978;51.020;6.764;2024-02-14T07:01:26;10.60;99.90
11838;DHT22;5978;51.020;6.764;2024-02-14T07:03:52;10.60;99.90
11838;DHT22;5978;51.020;6.764;2024-02-14T07:06:18;10.60;99.90
11838;DHT22;5978;51.020;6.764;2024-02-14T07:08:44;10.70;99.90
11838;DHT22;5978;51.020;6.764;2024-02-14T07:11:10;10.60;99.90
11838;DHT22;5978;51.020;6.764;2024-02-14T07:13:35;10.60;99.90
11838;DHT22;5978;51.020;6.764;2024-02-14T07:16:01;10.70;99.90
11838;DHT22;5978;51.020;6.764;2024-02-14T07:18:26;10.70;99.90
11838;DHT22;5978;51.020;6.764;2024-02-14T07:20:52;10.60;99.90
11838;DHT22;5978;51.020;6.764;2024-02-14T07:23:21;10.60;99.90
11838;DHT22;5978;51.020;6.764;2024-02-14T07:25:46;10.60;99.90
11838;DHT22;5978;51.020;6.764;2024-02-14T07:28:12;10.60;99.90
11838;DHT22;5978;51.020;6.764;2024-02-14T07:30:38;10.60;99.90
11838;DHT22;5978;51.020;6.764;2024-02-14T07:33:04;10.70;99.90
11838;DHT22;5978;51.020;6.764;2024-02-14T07:35:30;10.70;99.90
11838;DHT22;5978;51.020;6.764;2024-02-14T07:37:56;10.70;99.90
11838;DHT22;5978;51.020;6.764;2024-02-14T07:40:22;10.70;99.90
11838;DHT22;5978;51.020;6.764;2024-02-14T07:42:48;10.70;99.90
11838;DHT22;5978;51.020;6.764;2024-02-14T07:45:15;10.70;99.90
11838;DHT22;5978;51.020;6.764;2024-02-14T07:47:40;10.70;99.90
11838;DHT22;5978;51.020;6.764;2024-02-14T07:50:07;10.60;99.90
11838;DHT22;5978;51.020;6.764;2024-02-14T07:52:33;10.70;99.90
11838;DHT22;5978;51.020;6.764;2024-02-14T07:54:58;10.70;99.90
11838;DHT22;5978;51.020;6.764;2024-02-14T07:57:24;10.70;99.90
11838;DHT22;5978;51.020;6.764;2024-02-14T07:59:51;10.70;99.90
11838;DHT22;5978;51.020;6.764;2024-02-14T08:02:17;10.70;99.90
11838;DHT22;5978;51.020;6.764;2024-02-14T08:04:43;10.70;99.90
11838;DHT22;5978;51.020;6.764;2024-02-14T08:07:09;10.80;99.90
11838;DHT22;5978;51.020;6.764;2024-02-14T08:09:35;10.80;99.90
11838;DHT22;5978;51.020;6.764;2024-02-14T08:12:01;10.80;99.90
11838;DHT22;5978;51.020;6.764;2024-02-14T08:14:27;10.80;99.90
11838;DHT22;5978;51.020;6.764;2024-02-14T08:16:53;10.80;99.90
11838;DHT22;5978;51.020;6.764;2024-02-14T08:19:18;10.90;99.90
11838;DHT22;5978;51.020;6.764;2024-02-14T08:21:45;10.90;99.90
11838;DHT22;5978;51.020;6.764;2024-02-14T08:24:10;11.00;99.90
11838;DHT22;5978;51.020;6.764;2024-02-14T08:26:36;11.10;99.90
11838;DHT22;5978;51.020;6.764;2024-02-14T08:29:02;11.10;99.90
11838;DHT22;5978;51.020;6.764;2024-02-14T08:31:27;11.20;99.90
11838;DHT22;5978;51.020;6.764;2024-02-14T08:33:53;11.20;99.90
11838;DHT22;5978;51.020;6.764;2024-02-14T08:36:21;11.30;99.90
11838;DHT22;5978;51.020;6.764;2024-02-14T08:38:47;11.30;99.90
11838;DHT22;5978;51.020;6.764;2024-02-14T08:41:13;11.40;99.90
11838;DHT22;5978;51.020;6.764;2024-02-14T08:43:39;11.40;99.90
11838;DHT22;5978;51.020;6.764;2024-02-14T08:46:09;11.40;99.90
11838;DHT22;5978;51.020;6.764;2024-02-14T08:48:35;11.40;99.90
11838;DHT22;5978;51.020;6.764;2024-02-14T08:51:01;11.40;99.90
11838;DHT22;5978;51.020;6.764;2024-02-14T08:53:26;11.50;99.90
11838;DHT22;5978;51.020;6.764;2024-02-14T08:55:52;11.50;99.90
11838;DHT22;5978;51.020;6.764;2024-02-14T08:58:18;11.50;99.90
11838;DHT22;5978;51.020;6.764;2024-02-14T09:00:43;11.60;99.90
11838;DHT22;5978;51.020;6.764;2024-02-14T09:03:09;11.50;99.90
11838;DHT22;5978;51.020;6.764;2024-02-14T09:05:35;11.60;99.90
11838;DHT22;5978;51.020;6.764;2024-02-14T09:08:01;11.80;99.90
11838;DHT22;5978;51.020;6.764;2024-02-14T09:10:26;11.90;99.90
11838;DHT22;5978;51.020;6.764;2024-02-14T09:12:52;12.00;99.90
11838;DHT22;5978;51.020;6.764;2024-02-14T09:15:18;12.00;99.90
11838;DHT22;5978;51.020;6.764;2024-02-14T09:17:45;12.10;99.90
11838;DHT22;5978;51.020;6.764;2024-02-14T09:20:11;12.20;99.90
11838;DHT22;5978;51.020;6.764;2024-02-14T09:22:39;12.20;99.90
11838;DHT22;5978;51.020;6.764;2024-02-14T09:25:07;12.40;99.90
11838;DHT22;5978;51.020;6.764;2024-02-14T09:27:35;12.40;99.90
11838;DHT22;5978;51.020;6.764;2024-02-14T09:30:01;12.50;99.90
11838;DHT22;5978;51.020;6.764;2024-02-14T09:32:32;12.60;99.90
11838;DHT22;5978;51.020;6.764;2024-02-14T09:34:58;12.50;99.90
11838;DHT22;5978;51.020;6.764;2024-02-14T09:37:25;12.50;99.90
11838;DHT22;5978;51.020;6.764;2024-02-14T09:39:50;12.60;99.90
11838;DHT22;5978;51.020;6.764;2024-02-14T09:42:16;12.60;99.90
11838;DHT22;5978;51.020;6.764;2024-02-14T09:44:45;12.60;99.90
11838;DHT22;5978;51.020;6.764;2024-02-14T09:47:12;12.60;99.90
11838;DHT22;5978;51.020;6.764;2024-02-14T09:49:39;12.50;99.90
11838;DHT22;5978;51.020;6.764;2024-02-14T09:52:05;12.60;99.90
11838;DHT22;5978;51.020;6.764;2024-02-14T09:54:32;12.60;99.90
11838;DHT22;5978;51.020;6.764;2024-02-14T09:57:01;12.60;99.90
11838;DHT22;5978;51.020;6.764;2024-02-14T09:59:28;12.50;99.90
11838;DHT22;5978;51.020;6.764;2024-02-14T10:01:54;12.50;99.90
11838;DHT22;5978;51.020;6.764;2024-02-14T10:04:20;12.50;99.90
11838;DHT22;5978;51.020;6.764;2024-02-14T10:06:47;12.50;99.90
11838;DHT22;5978;51.020;6.764;2024-02-14T10:09:21;12.50;99.90
11838;DHT22;5978;51.020;6.764;2024-02-14T10:11:48;12.40;99.90
11838;DHT22;5978;51.020;6.764;2024-02-14T10:14:14;12.30;99.90
11838;DHT22;5978;51.020;6.764;2024-02-14T10:16:39;12.40;99.90
11838;DHT22;5978;51.020;6.764;2024-02-14T10:19:17;12.40;99.90
11838;DHT22;5978;51.020;6.764;2024-02-14T10:21:43;12.40;99.90
11838;DHT22;5978;51.020;6.764;2024-02-14T10:24:09;12.40;99.90
11838;DHT22;5978;51.020;6.764;2024-02-14T10:26:37;12.40;99.90
11838;DHT22;5978;51.020;6.764;2024-02-14T10:29:03;12.40;99.90
11838;DHT22;5978;51.020;6.764;2024-02-14T10:31:28;12.50;99.90
11838;DHT22;5978;51.020;6.764;2024-02-14T10:33:55;12.50;99.90
11838;DHT22;5978;51.020;6.764;2024-02-14T10:36:24;12.50;99.90
11838;DHT22;5978;51.020;6.764;2024-02-14T10:38:51;12.40;99.90
11838;DHT22;5978;51.020;6.764;2024-02-14T10:41:17;12.40;99.90
11838;DHT22;5978;51.020;6.764;2024-02-14T10:43:43;12.40;99.90
11838;DHT22;5978;51.020;6.764;2024-02-14T10:46:20;12.40;99.90
11838;DHT22;5978;51.020;6.764;2024-02-14T10:48:58;12.40;99.90
11838;DHT22;5978;51.020;6.764;2024-02-14T10:51:26;12.30;99.90
11838;DHT22;5978;51.020;6.764;2024-02-14T10:53:54;12.30;99.90
11838;DHT22;5978;51.020;6.764;2024-02-14T10:56:21;12.20;99.90
11838;DHT22;5978;51.020;6.764;2024-02-14T10:58:49;12.00;99.90
11838;DHT22;5978;51.020;6.764;2024-02-14T11:01:17;12.00;99.90
11838;DHT22;5978;51.020;6.764;2024-02-14T11:03:43;11.90;99.90
11838;DHT22;5978;51.020;6.764;2024-02-14T11:06:16;11.80;99.90
11838;DHT22;5978;51.020;6.764;2024-02-14T11:08:42;11.70;99.90
11838;DHT22;5978;51.020;6.764;2024-02-14T11:11:18;11.70;99.90
11838;DHT22;5978;51.020;6.764;2024-02-14T11:13:44;11.70;99.90
11838;DHT22;5978;51.020;6.764;2024-02-14T11:16:10;11.80;99.90
11838;DHT22;5978;51.020;6.764;2024-02-14T11:18:36;11.90;99.90
11838;DHT22;5978;51.020;6.764;2024-02-14T11:21:16;12.10;99.90
11838;DHT22;5978;51.020;6.764;2024-02-14T11:23:52;12.30;99.90
11838;DHT22;5978;51.020;6.764;2024-02-14T11:26:18;12.40;99.90
11838;DHT22;5978;51.020;6.764;2024-02-14T11:28:45;12.50;99.90
11838;DHT22;5978;51.020;6.764;2024-02-14T11:31:16;12.60;99.90
11838;DHT22;5978;51.020;6.764;2024-02-14T11:33:43;12.70;99.90
11838;DHT22;5978;51.020;6.764;2024-02-14T11:36:12;12.80;99.90
11838;DHT22;5978;51.020;6.764;2024-02-14T11:38:40;12.90;99.90
11838;DHT22;5978;51.020;6.764;2024-02-14T11:41:06;13.00;99.90
11838;DHT22;5978;51.020;6.764;2024-02-14T11:43:32;13.10;99.90
11838;DHT22;5978;51.020;6.764;2024-02-14T11:45:57;13.10;99.90
11838;DHT22;5978;51.020;6.764;2024-02-14T11:48:23;13.10;99.90
11838;DHT22;5978;51.020;6.764;2024-02-14T11:50:51;13.10;99.90
11838;DHT22;5978;51.020;6.764;2024-02-14T11:53:18;13.00;99.90
11838;DHT22;5978;51.020;6.764;2024-02-14T11:55:44;12.90;99.90
11838;DHT22;5978;51.020;6.764;2024-02-14T11:58:13;12.90;99.90
11838;DHT22;5978;51.020;6.764;2024-02-14T12:00:46;13.00;99.90
11838;DHT22;5978;51.020;6.764;2024-02-14T12:03:20;13.00;99.90
11838;DHT22;5978;51.020;6.764;2024-02-14T12:05:47;13.00;99.90
11838;DHT22;5978;51.020;6.764;2024-02-14T12:08:14;13.10;99.90
11838;DHT22;5978;51.020;6.764;2024-02-14T12:10:42;13.10;99.90
11838;DHT22;5978;51.020;6.764;2024-02-14T12:15:41;13.10;99.90
11838;DHT22;5978;51.020;6.764;2024-02-14T12:18:10;13.20;99.90
11838;DHT22;5978;51.020;6.764;2024-02-14T12:20:41;13.30;99.90
11838;DHT22;5978;51.020;6.764;2024-02-14T12:23:07;13.30;99.90
11838;DHT22;5978;51.020;6.764;2024-02-14T12:25:33;13.30;99.90
11838;DHT22;5978;51.020;6.764;2024-02-14T12:27:59;13.30;99.90
11838;DHT22;5978;51.020;6.764;2024-02-14T12:30:47;13.30;99.90
11838;DHT22;5978;51.020;6.764;2024-02-14T12:33:14;13.30;99.90
11838;DHT22;5978;51.020;6.764;2024-02-14T12:35:47;13.30;99.90
11838;DHT22;5978;51.020;6.764;2024-02-14T12:38:14;13.30;99.90
11838;DHT22;5978;51.020;6.764;2024-02-14T12:40:41;13.30;99.90
11838;DHT22;5978;51.020;6.764;2024-02-14T12:43:10;13.30;99.90
11838;DHT22;5978;51.020;6.764;2024-02-14T12:45:37;13.20;99.90
11838;DHT22;5978;51.020;6.764;2024-02-14T12:48:03;13.30;99.90
11838;DHT22;5978;51.020;6.764;2024-02-14T12:50:30;13.40;99.90
11838;DHT22;5978;51.020;6.764;2024-02-14T12:52:56;13.50;99.90
11838;DHT22;5978;51.020;6.764;2024-02-14T12:55:22;13.60;99.90
11838;DHT22;5978;51.020;6.764;2024-02-14T12:57:59;13.60;99.90
11838;DHT22;5978;51.020;6.764;2024-02-14T13:00:26;13.70;99.90
11838;DHT22;5978;51.020;6.764;2024-02-14T13:02:52;13.70;99.90
11838;DHT22;5978;51.020;6.764;2024-02-14T13:05:20;13.70;99.90
11838;DHT22;5978;51.020;6.764;2024-02-14T13:07:45;13.60;99.90
11838;DHT22;5978;51.020;6.764;2024-02-14T13:10:12;13.60;99.90
11838;DHT22;5978;51.020;6.764;2024-02-14T13:12:38;13.60;99.90
11838;DHT22;5978;51.020;6.764;2024-02-14T13:15:08;13.60;99.90
11838;DHT22;5978;51.020;6.764;2024-02-14T13:17:34;13.60;99.90
11838;DHT22;5978;51.020;6.764;2024-02-14T13:20:00;13.50;99.90
11838;DHT22;5978;51.020;6.764;2024-02-14T13:22:26;13.60;99.90
11838;DHT22;5978;51.020;6.764;2024-02-14T13:24:52;13.60;99.90
11838;DHT22;5978;51.020;6.764;2024-02-14T13:27:17;13.60;99.90
11838;DHT22;5978;51.020;6.764;2024-02-14T13:32:20;13.40;99.90
11838;DHT22;5978;51.020;6.764;2024-02-14T13:34:45;13.40;99.90
11838;DHT22;5978;51.020;6.764;2024-02-14T13:37:11;13.30;99.90
11838;DHT22;5978;51.020;6.764;2024-02-14T13:39:37;13.30;99.90
11838;DHT22;5978;51.020;6.764;2024-02-14T13:42:03;13.20;99.90
11838;DHT22;5978;51.020;6.764;2024-02-14T13:44:28;13.10;99.90
11838;DHT22;5978;51.020;6.764;2024-02-14T13:46:55;13.00;99.90
11838;DHT22;5978;51.020;6.764;2024-02-14T13:49:20;13.00;99.90
11838;DHT22;5978;51.020;6.764;2024-02-14T13:51:52;13.00;99.90
11838;DHT22;5978;51.020;6.764;2024-02-14T13:54:21;12.90;99.90
11838;DHT22;5978;51.020;6.764;2024-02-14T13:56:49;12.80;99.90
11838;DHT22;5978;51.020;6.764;2024-02-14T13:59:15;12.80;99.90
11838;DHT22;5978;51.020;6.764;2024-02-14T14:01:41;12.80;99.90
11838;DHT22;5978;51.020;6.764;2024-02-14T14:04:06;12.80;99.90
11838;DHT22;5978;51.020;6.764;2024-02-14T14:06:32;12.70;99.90
11838;DHT22;5978;51.020;6.764;2024-02-14T14:08:59;12.70;99.90
11838;DHT22;5978;51.020;6.764;2024-02-14T14:11:25;12.60;99.90
11838;DHT22;5978;51.020;6.764;2024-02-14T14:13:51;12.60;99.90
11838;DHT22;5978;51.020;6.764;2024-02-14T14:16:16;12.50;99.90
11838;DHT22;5978;51.020;6.764;2024-02-14T14:18:43;12.40;99.90
11838;DHT22;5978;51.020;6.764;2024-02-14T14:21:08;12.40;99.90
11838;DHT22;5978;51.020;6.764;2024-02-14T14:23:34;12.40;99.90
11838;DHT22;5978;51.020;6.764;2024-02-14T14:26:00;12.40;99.90
11838;DHT22;5978;51.020;6.764;2024-02-14T14:28:26;12.30;99.90
11838;DHT22;5978;51.020;6.764;2024-02-14T14:30:53;12.30;99.90
11838;DHT22;5978;51.020;6.764;2024-02-14T14:33:22;12.30;99.90
11838;DHT22;5978;51.020;6.764;2024-02-14T14:35:48;12.20;99.90
11838;DHT22;5978;51.020;6.764;2024-02-14T14:38:16;12.20;99.90
11838;DHT22;5978;51.020;6.764;2024-02-14T14:40:42;12.20;99.90
11838;DHT22;5978;51.020;6.764;2024-02-14T14:43:07;12.20;99.90
11838;DHT22;5978;51.020;6.764;2024-02-14T14:45:33;12.20;99.90
11838;DHT22;5978;51.020;6.764;2024-02-14T14:47:59;12.10;99.90
11838;DHT22;5978;51.020;6.764;2024-02-14T14:50:24;12.10;99.90
11838;DHT22;5978;51.020;6.764;2024-02-14T14:52:51;12.10;99.90
11838;DHT22;5978;51.020;6.764;2024-02-14T14:55:20;12.00;99.90
11838;DHT22;5978;51.020;6.764;2024-02-14T14:57:46;12.10;99.90
11838;DHT22;5978;51.020;6.764;2024-02-14T15:00:13;12.10;99.90
11838;DHT22;5978;51.020;6.764;2024-02-14T15:46:39;12.10;99.90
11838;DHT22;5978;51.020;6.764;2024-02-14T15:54:34;12.10;99.90
11838;DHT22;5978;51.020;6.764;2024-02-14T15:56:59;12.20;99.90
11838;DHT22;5978;51.020;6.764;2024-02-14T15:59:26;12.20;99.90
11838;DHT22;5978;51.020;6.764;2024-02-14T16:01:52;12.20;99.90
11838;DHT22;5978;51.020;6.764;2024-02-14T16:04:18;12.20;99.90
11838;DHT22;5978;51.020;6.764;2024-02-14T16:06:44;12.20;99.90
11838;DHT22;5978;51.020;6.764;2024-02-14T16:09:09;12.20;99.90
11838;DHT22;5978;51.020;6.764;2024-02-14T16:25:13;12.20;99.90
11838;DHT22;5978;51.020;6.764;2024-02-14T16:27:39;12.20;99.90
11838;DHT22;5978;51.020;6.764;2024-02-14T16:30:06;12.20;99.90
11838;DHT22;5978;51.020;6.764;2024-02-14T16:32:35;12.20;99.90
11838;DHT22;5978;51.020;6.764;2024-02-14T16:35:02;12.20;99.90
11838;DHT22;5978;51.020;6.764;2024-02-14T16:37:28;12.20;99.90
11838;DHT22;5978;51.020;6.764;2024-02-14T16:39:54;12.20;99.90
11838;DHT22;5978;51.020;6.764;2024-02-14T16:42:20;12.20;99.90
11838;DHT22;5978;51.020;6.764;2024-02-14T16:44:46;12.20;99.90
11838;DHT22;5978;51.020;6.764;2024-02-14T16:47:12;12.20;99.90
11838;DHT22;5978;51.020;6.764;2024-02-14T16:49:38;12.20;99.90
11838;DHT22;5978;51.020;6.764;2024-02-14T16:52:04;12.20;99.90
11838;DHT22;5978;51.020;6.764;2024-02-14T16:54:34;12.20;99.90